Time;durP1;ratioP1;P1;durP2;ratioP2;P2;SDS_P1;SDS_P2;PMS_P1;PMS_P2;Temp;Humidity;BMP_temperature;BMP_pressure;BME280_temperature;BME280_humidity;BME280_pressure;Samples;Min_cycle;Max_cycle;Signal;HPM_P1;HPM_P2
2022/05/21 00:01:03;;;;;;;10.50;9.50;;;13.10;99.90;;;;;;4978331;28;20460;-79
2022/05/21 00:03:31;;;;;;;10.90;10.00;;;13.10;99.90;;;;;;4978020;28;20452;-78
2022/05/21 00:06:01;;;;;;;9.87;9.07;;;13.10;99.90;;;;;;4977799;28;20452;-79
2022/05/21 00:08:35;;;;;;;9.57;8.87;;;13.10;99.90;;;;;;4978015;28;20448;-79
2022/05/21 00:11:04;;;;;;;9.43;8.63;;;13.00;99.90;;;;;;4977550;28;20457;-79
2022/05/21 00:13:32;;;;;;;8.07;7.37;;;13.00;99.90;;;;;;4995169;28;20448;-78
2022/05/21 00:16:01;;;;;;;9.50;8.57;;;13.00;99.90;;;;;;4994750;28;20469;-78
2022/05/21 00:18:29;;;;;;;8.70;7.97;;;13.00;99.90;;;;;;4977882;28;20449;-79
2022/05/21 00:20:58;;;;;;;8.73;8.00;;;13.00;99.90;;;;;;4995195;28;20950;-79
2022/05/21 00:23:30;;;;;;;8.27;7.57;;;13.00;99.90;;;;;;4977420;28;20449;-79
2022/05/21 00:26:00;;;;;;;8.30;7.60;;;12.90;99.90;;;;;;4995313;28;20445;-78
2022/05/21 00:28:32;;;;;;;8.60;7.90;;;12.90;99.90;;;;;;4994497;28;20432;-78
2022/05/21 00:31:02;;;;;;;7.73;7.13;;;12.90;99.90;;;;;;4995190;28;20429;-79
2022/05/21 00:33:31;;;;;;;8.00;7.20;;;12.90;99.90;;;;;;4978522;28;20453;-79
2022/05/21 00:35:59;;;;;;;7.57;6.97;;;12.90;99.90;;;;;;4977076;28;20499;-79
2022/05/21 00:38:32;;;;;;;8.40;7.80;;;12.80;99.90;;;;;;4995483;28;20440;-79
2022/05/21 00:41:02;;;;;;;7.27;6.53;;;12.80;99.90;;;;;;4995624;28;20429;-78
2022/05/21 00:43:36;;;;;;;7.93;7.23;;;12.80;99.90;;;;;;4977146;28;20515;-78
2022/05/21 00:46:05;;;;;;;7.70;7.03;;;12.80;99.90;;;;;;4977672;28;20448;-78
2022/05/21 00:48:35;;;;;;;7.70;7.10;;;12.80;99.90;;;;;;4994640;28;20444;-78
2022/05/21 00:51:05;;;;;;;8.00;7.30;;;12.70;99.90;;;;;;4994139;28;20429;-79
2022/05/21 00:53:35;;;;;;;7.17;6.57;;;12.70;99.90;;;;;;4976940;28;20436;-78
2022/05/21 00:56:05;;;;;;;7.60;7.10;;;12.70;99.90;;;;;;4977261;28;20911;-78
2022/05/21 01:01:20;;;;;;;7.70;6.90;;;12.70;99.90;;;;;;4976555;28;20483;-78
2022/05/21 01:03:48;;;;;;;8.10;7.40;;;12.60;99.90;;;;;;4977052;28;20441;-78
2022/05/21 01:06:17;;;;;;;8.10;7.40;;;12.60;99.90;;;;;;4993780;28;20451;-79
2022/05/21 01:08:48;;;;;;;8.70;8.00;;;12.60;99.90;;;;;;4977530;28;20980;-78
2022/05/21 01:11:19;;;;;;;7.50;6.90;;;12.60;99.90;;;;;;4994737;28;20531;-78
2022/05/21 01:13:50;;;;;;;7.30;6.70;;;12.60;99.90;;;;;;4975761;28;20469;-78
2022/05/21 01:16:19;;;;;;;8.33;7.60;;;12.50;99.90;;;;;;4976638;28;20527;-78
2022/05/21 01:18:47;;;;;;;8.00;7.20;;;12.50;99.90;;;;;;4977139;28;20459;-78
2022/05/21 01:21:16;;;;;;;8.80;8.00;;;12.50;99.90;;;;;;4976602;28;20832;-78
2022/05/21 01:23:46;;;;;;;7.87;7.27;;;12.50;99.90;;;;;;4976798;28;20455;-78
2022/05/21 01:26:20;;;;;;;8.60;7.80;;;12.50;99.90;;;;;;4994616;28;20429;-78
2022/05/21 01:28:50;;;;;;;8.07;7.37;;;12.40;99.90;;;;;;4976667;28;20878;-78
2022/05/21 01:31:18;;;;;;;8.27;7.57;;;12.50;99.90;;;;;;4976993;28;20472;-78
2022/05/21 01:33:47;;;;;;;8.20;7.50;;;12.40;99.90;;;;;;4977450;28;20448;-78
2022/05/21 01:36:16;;;;;;;9.10;7.67;;;12.40;99.90;;;;;;4976467;28;20479;-78
2022/05/21 01:38:47;;;;;;;8.77;8.00;;;12.40;99.90;;;;;;4976227;28;20950;-78
2022/05/21 01:41:15;;;;;;;10.87;8.13;;;12.40;99.90;;;;;;4977512;28;20444;-78
2022/05/21 01:46:30;;;;;;;9.63;8.83;;;12.40;99.90;;;;;;4979605;28;20472;-78
2022/05/21 01:48:58;;;;;;;10.33;9.27;;;12.30;99.90;;;;;;4979868;28;20448;-78
2022/05/21 01:51:27;;;;;;;9.13;8.30;;;12.30;99.90;;;;;;4980997;28;20488;-78
2022/05/21 01:54:02;;;;;;;9.13;8.43;;;12.30;99.90;;;;;;5002427;28;20429;-77
2022/05/21 01:56:30;;;;;;;8.87;8.00;;;12.40;99.90;;;;;;5001859;28;20550;-78
2022/05/21 01:58:59;;;;;;;9.50;8.60;;;12.40;99.90;;;;;;4981965;28;20452;-78
2022/05/21 02:01:27;;;;;;;9.80;8.60;;;12.40;99.90;;;;;;4982118;28;20483;-78
2022/05/21 02:03:56;;;;;;;10.80;9.70;;;12.40;99.90;;;;;;4982771;28;20452;-78
2022/05/21 02:06:24;;;;;;;10.43;9.53;;;12.40;99.90;;;;;;4983493;28;20456;-78
2022/05/21 02:08:53;;;;;;;10.27;9.43;;;12.40;99.90;;;;;;4986183;28;20532;-78
2022/05/21 02:11:23;;;;;;;11.17;10.20;;;12.40;99.90;;;;;;4990483;28;20480;-78
2022/05/21 02:13:51;;;;;;;10.40;9.50;;;12.40;99.90;;;;;;5004196;28;20824;-78
2022/05/21 02:16:19;;;;;;;10.97;10.00;;;12.40;99.90;;;;;;4986027;28;21044;-78
2022/05/21 02:18:48;;;;;;;11.40;10.40;;;12.40;99.90;;;;;;4984753;28;20452;-78
2022/05/21 02:21:22;;;;;;;11.80;10.63;;;12.40;99.90;;;;;;4984716;28;20453;-78
2022/05/21 02:23:50;;;;;;;11.80;10.70;;;12.40;99.90;;;;;;4985026;28;20514;-78
2022/05/21 02:26:19;;;;;;;12.63;11.50;;;12.40;99.90;;;;;;4979356;28;20528;-78
2022/05/21 02:28:49;;;;;;;11.00;10.00;;;12.40;99.90;;;;;;4978890;28;20456;-79
2022/05/21 02:31:17;;;;;;;12.73;11.63;;;12.40;99.90;;;;;;4978145;28;20453;-78
2022/05/21 02:33:48;;;;;;;13.90;12.60;;;12.40;99.90;;;;;;4978446;28;20448;-78
2022/05/21 02:36:17;;;;;;;13.57;12.23;;;12.40;99.90;;;;;;4979363;28;20475;-78
2022/05/21 02:41:37;;;;;;;14.97;13.63;;;12.40;99.90;;;;;;4979303;28;20495;-77
2022/05/21 02:44:09;;;;;;;14.10;12.90;;;12.30;99.90;;;;;;4978655;28;20507;-78
2022/05/21 02:46:38;;;;;;;16.10;14.70;;;12.30;99.90;;;;;;4995546;28;20480;-78
2022/05/21 02:49:06;;;;;;;16.17;14.70;;;12.30;99.90;;;;;;4977766;28;20555;-78
2022/05/21 02:51:34;;;;;;;15.37;14.07;;;12.30;99.90;;;;;;4994609;28;20480;-78
2022/05/21 02:54:03;;;;;;;17.00;15.30;;;12.30;99.90;;;;;;4977908;28;20475;-78
2022/05/21 02:56:31;;;;;;;15.87;14.47;;;12.30;99.90;;;;;;4977542;28;20487;-78
2022/05/21 02:58:59;;;;;;;15.50;14.20;;;12.30;99.90;;;;;;4977793;28;20539;-78
2022/05/21 03:01:29;;;;;;;17.67;15.87;;;12.30;99.90;;;;;;4995347;28;20476;-76
2022/05/21 03:03:58;;;;;;;17.53;16.00;;;12.30;99.90;;;;;;4995192;28;20452;-77
2022/05/21 03:06:29;;;;;;;17.93;16.40;;;12.30;99.90;;;;;;4995056;28;20447;-77
2022/05/21 03:11:43;;;;;;;19.17;17.37;;;12.30;99.90;;;;;;4977419;28;20835;-77
2022/05/21 03:14:11;;;;;;;19.30;17.70;;;12.30;99.90;;;;;;4977688;28;20539;-77
2022/05/21 03:16:41;;;;;;;14.53;13.27;;;12.30;99.90;;;;;;4977423;28;20468;-77
2022/05/21 03:19:09;;;;;;;22.63;20.43;;;12.30;99.90;;;;;;4994738;28;20877;-78
2022/05/21 03:21:38;;;;;;;22.63;20.73;;;12.40;99.90;;;;;;4978381;28;20461;-78
2022/05/21 03:24:08;;;;;;;22.83;20.53;;;12.40;99.90;;;;;;4995001;28;20858;-77
2022/05/21 03:26:38;;;;;;;23.53;21.53;;;12.40;99.90;;;;;;4978180;28;20484;-78
2022/05/21 03:29:06;;;;;;;21.43;19.27;;;12.40;99.90;;;;;;4977184;28;20514;-78
2022/05/21 03:31:34;;;;;;;23.37;21.10;;;12.40;99.90;;;;;;4977781;28;20571;-77
2022/05/21 03:34:04;;;;;;;20.23;18.43;;;12.40;99.90;;;;;;4977349;28;20547;-77
2022/05/21 03:36:33;;;;;;;26.27;23.93;;;12.50;99.90;;;;;;4976897;28;20962;-77
2022/05/21 03:39:02;;;;;;;27.20;24.60;;;12.50;99.90;;;;;;4994843;28;20455;-78
2022/05/21 03:41:31;;;;;;;26.67;24.07;;;12.50;99.90;;;;;;4994610;28;20465;-77
2022/05/21 03:44:00;;;;;;;25.03;22.93;;;12.50;99.90;;;;;;4976867;28;20541;-77
2022/05/21 03:46:31;;;;;;;28.43;25.87;;;12.50;99.90;;;;;;4994652;28;20480;-77
2022/05/21 03:49:04;;;;;;;28.17;25.43;;;12.60;99.90;;;;;;4977043;28;20457;-77
2022/05/21 03:51:37;;;;;;;26.30;24.00;;;12.60;99.90;;;;;;4976966;28;20908;-77
2022/05/21 03:54:05;;;;;;;29.80;26.90;;;12.60;99.90;;;;;;4977120;28;20457;-77
2022/05/21 03:56:34;;;;;;;28.30;25.93;;;12.70;99.90;;;;;;4994022;28;20475;-77
2022/05/21 03:59:03;;;;;;;29.50;27.00;;;12.70;99.90;;;;;;4976563;28;20793;-77
2022/05/21 04:01:31;;;;;;;32.63;29.53;;;12.70;99.90;;;;;;4993954;28;20547;-78
2022/05/21 04:04:00;;;;;;;32.83;29.93;;;12.70;99.90;;;;;;4993607;28;20437;-77
2022/05/21 04:06:29;;;;;;;35.60;32.37;;;12.80;99.90;;;;;;4977365;28;20457;-78
2022/05/21 04:09:11;;;;;;;34.27;31.33;;;12.80;99.90;;;;;;4977693;28;20449;-78
2022/05/21 04:11:42;;;;;;;34.73;31.37;;;12.80;99.90;;;;;;4977319;28;20480;-78
2022/05/21 04:14:13;;;;;;;36.20;32.90;;;12.80;99.90;;;;;;4978640;28;20542;-78
2022/05/21 04:16:43;;;;;;;37.07;33.60;;;12.80;99.90;;;;;;4995203;28;20495;-78
2022/05/21 04:19:12;;;;;;;36.60;33.23;;;12.80;99.90;;;;;;4977637;28;20448;-78
2022/05/21 04:21:44;;;;;;;36.17;32.43;;;12.80;99.90;;;;;;4995746;28;21056;-78
2022/05/21 04:24:13;;;;;;;37.43;34.07;;;12.80;99.90;;;;;;4978095;28;20460;-78
2022/05/21 04:26:41;;;;;;;40.37;36.57;;;12.80;99.90;;;;;;4977979;28;20465;-78
2022/05/21 04:29:16;;;;;;;40.57;37.07;;;12.80;99.90;;;;;;4977342;28;20515;-78
2022/05/21 04:31:44;;;;;;;38.13;34.73;;;12.80;99.90;;;;;;4994587;28;20477;-78
2022/05/21 04:34:13;;;;;;;38.80;35.40;;;12.90;99.90;;;;;;4977315;28;20459;-78
2022/05/21 04:36:41;;;;;;;40.10;36.40;;;12.90;99.90;;;;;;4977246;28;20484;-79
2022/05/21 04:39:11;;;;;;;39.03;35.30;;;12.90;99.90;;;;;;4995171;28;20443;-79
2022/05/21 04:41:40;;;;;;;41.03;37.13;;;12.90;99.90;;;;;;4977602;28;20568;-79
2022/05/21 04:44:09;;;;;;;41.17;37.20;;;12.90;99.90;;;;;;4977628;28;20479;-78
2022/05/21 04:46:37;;;;;;;40.40;36.70;;;12.90;99.90;;;;;;4977366;28;20484;-78
2022/05/21 04:49:06;;;;;;;41.27;37.13;;;12.90;99.90;;;;;;4977138;28;20452;-78
2022/05/21 04:51:38;;;;;;;41.63;37.63;;;13.00;99.90;;;;;;5001533;28;20579;-78
2022/05/21 04:54:06;;;;;;;39.40;35.73;;;13.00;99.90;;;;;;4986910;28;20476;-79
2022/05/21 04:56:37;;;;;;;40.60;36.87;;;13.00;99.90;;;;;;4985379;28;20457;-78
2022/05/21 04:59:08;;;;;;;36.83;33.50;;;13.00;99.90;;;;;;5005960;28;20439;-78
2022/05/21 05:01:37;;;;;;;40.77;36.57;;;13.10;99.90;;;;;;4983734;28;20472;-78
2022/05/21 05:04:07;;;;;;;39.67;35.80;;;13.10;99.90;;;;;;5004230;28;20452;-78
2022/05/21 05:06:36;;;;;;;38.70;35.20;;;13.10;99.90;;;;;;4988162;28;20483;-78
2022/05/21 05:09:15;;;;;;;37.83;34.20;;;13.10;99.90;;;;;;4982980;28;20449;-78
2022/05/21 05:11:46;;;;;;;38.17;34.67;;;13.10;99.90;;;;;;4996089;28;20456;-78
2022/05/21 05:14:14;;;;;;;37.53;34.10;;;13.20;99.90;;;;;;4996640;28;20436;-79
2022/05/21 05:16:42;;;;;;;37.83;34.47;;;13.20;99.90;;;;;;4982255;28;20477;-78
2022/05/21 05:19:15;;;;;;;37.50;34.10;;;13.20;99.90;;;;;;4982831;28;20511;-78
2022/05/21 05:21:44;;;;;;;39.70;36.00;;;13.20;99.90;;;;;;4981489;28;20535;-78
2022/05/21 05:24:24;;;;;;;37.30;33.87;;;13.30;99.90;;;;;;4983526;28;20444;-78
2022/05/21 05:27:13;;;;;;;38.03;34.47;;;13.30;99.90;;;;;;4981421;28;20820;-78
2022/05/21 05:29:42;;;;;;;35.90;32.67;;;13.30;99.90;;;;;;4981278;28;20451;-78
2022/05/21 05:32:11;;;;;;;35.00;31.90;;;13.40;99.90;;;;;;4981155;28;20551;-78
2022/05/21 05:34:39;;;;;;;34.50;31.60;;;13.50;99.90;;;;;;4981584;28;20506;-78
2022/05/21 05:37:09;;;;;;;34.03;30.93;;;13.50;99.90;;;;;;4980972;28;20479;-78
2022/05/21 05:39:38;;;;;;;32.33;29.33;;;13.60;99.90;;;;;;4980975;28;20480;-78
2022/05/21 05:42:09;;;;;;;32.80;29.90;;;13.70;99.90;;;;;;4980473;28;20982;-78
2022/05/21 05:44:40;;;;;;;34.97;31.87;;;13.70;99.90;;;;;;4981074;28;20451;-77
2022/05/21 05:47:08;;;;;;;32.83;29.73;;;13.80;99.90;;;;;;4980461;28;20488;-78
2022/05/21 05:49:36;;;;;;;31.87;28.90;;;13.80;99.90;;;;;;4981234;28;20832;-78
2022/05/21 05:52:06;;;;;;;29.67;26.87;;;13.90;99.90;;;;;;4999065;28;20893;-78
2022/05/21 05:54:34;;;;;;;28.50;25.90;;;14.00;99.90;;;;;;4981110;28;20880;-78
2022/05/21 05:57:02;;;;;;;30.40;25.87;;;14.00;99.90;;;;;;4998470;28;20493;-78
2022/05/21 05:59:49;;;;;;;28.07;25.50;;;14.00;99.90;;;;;;4976208;28;20495;-78
2022/05/21 06:05:11;;;;;;;28.13;23.90;;;14.10;99.90;;;;;;4998827;28;20423;-78
2022/05/21 06:07:44;;;;;;;25.03;22.93;;;14.10;99.90;;;;;;4979880;28;20444;-77
2022/05/21 06:10:24;;;;;;;24.80;22.53;;;14.10;99.90;;;;;;4979848;28;20959;-78
2022/05/21 06:12:53;;;;;;;24.77;22.47;;;14.10;99.90;;;;;;4979722;28;20997;-78
2022/05/21 06:15:33;;;;;;;26.10;23.07;;;14.10;99.90;;;;;;4979766;28;20957;-76
2022/05/21 06:18:27;;;;;;;24.37;21.97;;;14.10;99.90;;;;;;4979233;28;20559;-76
2022/05/21 06:21:19;;;;;;;22.57;20.37;;;14.20;99.90;;;;;;4979265;28;20567;-77
2022/05/21 06:23:48;;;;;;;22.30;20.30;;;14.30;99.90;;;;;;4979062;28;20545;-76
2022/05/21 06:27:15;;;;;;;22.50;20.53;;;14.40;99.90;;;;;;4979619;28;20480;-76
2022/05/21 06:30:42;;;;;;;20.50;18.70;;;14.50;99.90;;;;;;4979240;28;20457;-77
2022/05/21 06:33:25;;;;;;;18.97;17.07;;;14.50;99.90;;;;;;4978953;28;20479;-76
2022/05/21 06:36:38;;;;;;;19.90;18.00;;;14.60;99.90;;;;;;4996838;28;20433;-76
2022/05/21 06:39:52;;;;;;;19.27;17.43;;;14.80;99.90;;;;;;4980235;28;20449;-77
2022/05/21 06:43:00;;;;;;;17.53;15.83;;;15.00;99.90;;;;;;4996193;28;20460;-76
2022/05/21 06:45:32;;;;;;;17.23;15.53;;;15.00;99.90;;;;;;4978746;28;20497;-77
2022/05/21 06:48:01;;;;;;;16.37;14.57;;;15.00;99.90;;;;;;4978765;28;20483;-77
2022/05/21 06:50:30;;;;;;;15.57;14.17;;;15.20;99.90;;;;;;4978891;28;20460;-76
2022/05/21 06:52:58;;;;;;;13.80;12.50;;;15.30;99.90;;;;;;4979653;28;20459;-77
2022/05/21 06:55:28;;;;;;;19.57;13.33;;;15.40;99.90;;;;;;4998386;28;20463;-77
2022/05/21 06:57:56;;;;;;;14.77;12.90;;;15.60;99.90;;;;;;4987769;28;21023;-77
2022/05/21 07:00:25;;;;;;;11.43;10.33;;;15.70;99.90;;;;;;4993340;28;20935;-77
2022/05/21 07:02:55;;;;;;;11.03;10.03;;;15.90;99.90;;;;;;4997663;28;20482;-77
2022/05/21 07:08:16;;;;;;;11.67;9.43;;;16.10;99.90;;;;;;4998488;28;20437;-78
2022/05/21 07:10:45;;;;;;;11.10;8.20;;;16.10;99.90;;;;;;4978235;28;21001;-77
2022/05/21 07:13:13;;;;;;;10.90;7.37;;;16.30;99.90;;;;;;4994997;28;20446;-77
2022/05/21 07:15:42;;;;;;;7.90;7.03;;;16.50;99.90;;;;;;4996015;28;20419;-77
2022/05/21 07:18:13;;;;;;;11.47;7.17;;;16.70;99.90;;;;;;4979479;28;20454;-77
2022/05/21 07:20:41;;;;;;;8.17;6.37;;;16.80;99.90;;;;;;4980230;28;20514;-77
2022/05/21 07:23:09;;;;;;;10.87;6.20;;;16.90;99.90;;;;;;4980087;28;20530;-77
2022/05/21 07:25:39;;;;;;;7.30;4.87;;;17.10;99.90;;;;;;4982842;28;20473;-78
2022/05/21 07:28:08;;;;;;;7.50;4.53;;;17.20;99.90;;;;;;4986417;28;20455;-77
2022/05/21 07:30:38;;;;;;;6.17;5.03;;;17.20;99.90;;;;;;4985948;28;20431;-77
2022/05/21 07:33:11;;;;;;;7.20;4.40;;;17.20;99.90;;;;;;4984929;28;20502;-77
2022/05/21 07:35:40;;;;;;;8.27;5.10;;;17.20;99.90;;;;;;4986626;28;20466;-77
2022/05/21 07:38:11;;;;;;;5.93;4.30;;;17.10;99.90;;;;;;4986505;28;20465;-76
2022/05/21 07:40:41;;;;;;;6.97;4.93;;;17.10;99.90;;;;;;5002415;28;20396;-77
2022/05/21 07:43:11;;;;;;;5.40;4.80;;;17.10;99.90;;;;;;4983862;28;20543;-76
2022/05/21 07:45:41;;;;;;;8.23;5.10;;;17.00;99.90;;;;;;4982901;28;20518;-76
2022/05/21 07:48:13;;;;;;;8.23;5.40;;;17.00;99.90;;;;;;4984787;28;20456;-77
2022/05/21 07:50:43;;;;;;;8.17;4.43;;;17.10;99.90;;;;;;4985148;28;20445;-76
2022/05/21 07:53:12;;;;;;;6.47;4.17;;;17.30;99.90;;;;;;4984724;28;20543;-77
2022/05/21 07:55:43;;;;;;;8.37;3.73;;;17.40;99.90;;;;;;5001136;28;20436;-77
2022/05/21 07:58:12;;;;;;;6.37;3.97;;;17.60;99.90;;;;;;4983902;28;20449;-77
2022/05/21 08:00:40;;;;;;;4.33;3.40;;;17.80;99.90;;;;;;4984032;28;20476;-77
2022/05/21 08:03:09;;;;;;;11.40;4.00;;;17.80;99.90;;;;;;4983880;28;20473;-77
2022/05/21 08:05:40;;;;;;;5.83;3.50;;;17.80;99.90;;;;;;4984484;28;20449;-77
2022/05/21 08:08:09;;;;;;;4.50;3.33;;;18.00;99.90;;;;;;5001006;28;20492;-77
2022/05/21 08:10:39;;;;;;;6.47;3.27;;;18.00;99.90;;;;;;4982033;28;20455;-76
2022/05/21 08:13:09;;;;;;;6.43;3.00;;;18.20;99.90;;;;;;4984204;28;20472;-76
2022/05/21 08:15:38;;;;;;;6.20;2.60;;;18.30;99.90;;;;;;4981709;28;20491;-76
2022/05/21 08:18:07;;;;;;;6.07;2.50;;;18.40;99.90;;;;;;4979657;28;20453;-77
2022/05/21 08:20:38;;;;;;;7.67;3.63;;;18.40;99.90;;;;;;4980743;28;20452;-76
2022/05/21 08:28:41;;;;;;;8.00;3.37;;;17.90;99.90;;;;;;4978001;28;20482;-77
2022/05/21 08:31:09;;;;;;;6.13;3.03;;;17.60;99.90;;;;;;4994564;28;20444;-77
2022/05/21 08:33:38;;;;;;;6.63;3.30;;;17.60;99.90;;;;;;4976897;28;20427;-77
2022/05/21 08:36:08;;;;;;;6.77;3.77;;;17.80;99.90;;;;;;4976889;28;20427;-76
2022/05/21 08:38:37;;;;;;;6.33;3.23;;;17.90;99.90;;;;;;4994517;28;20443;-76
2022/05/21 08:41:11;;;;;;;7.10;2.90;;;17.90;99.90;;;;;;4976614;28;20440;-77
2022/05/21 08:43:50;;;;;;;5.13;3.40;;;17.90;99.90;;;;;;4976682;28;20461;-76
2022/05/21 08:46:37;;;;;;;5.40;2.77;;;17.80;99.90;;;;;;4976686;28;20444;-76
2022/05/21 08:49:07;;;;;;;5.43;2.70;;;17.70;99.90;;;;;;4976850;28;20451;-77
2022/05/21 08:51:47;;;;;;;5.63;2.80;;;17.60;99.90;;;;;;4993583;28;20447;-76
2022/05/21 08:54:23;;;;;;;4.67;2.60;;;17.60;99.90;;;;;;4977547;28;20447;-76
2022/05/21 08:56:54;;;;;;;6.87;3.40;;;17.50;99.90;;;;;;4976569;28;20445;-77
2022/05/21 08:59:27;;;;;;;4.50;2.63;;;17.50;99.90;;;;;;4976537;28;20496;-76
2022/05/21 09:01:55;;;;;;;4.00;2.70;;;17.40;99.90;;;;;;4976474;28;20503;-76
2022/05/21 09:04:27;;;;;;;3.23;2.20;;;17.50;99.90;;;;;;4976800;28;20463;-76
2022/05/21 09:07:01;;;;;;;8.17;3.57;;;17.60;99.90;;;;;;4994144;28;20437;-76
2022/05/21 09:09:43;;;;;;;5.07;2.50;;;17.70;99.90;;;;;;4976418;28;20515;-76
2022/05/21 09:12:21;;;;;;;5.07;2.60;;;17.90;99.90;;;;;;4976577;28;20534;-76
2022/05/21 09:14:53;;;;;;;4.37;3.20;;;18.10;99.90;;;;;;4994327;28;20476;-76
2022/05/21 09:17:24;;;;;;;4.67;3.00;;;18.20;99.90;;;;;;4994258;28;20444;-75
2022/05/21 09:19:55;;;;;;;6.03;3.67;;;18.40;99.90;;;;;;4994014;28;20461;-76
2022/05/21 09:22:33;;;;;;;4.50;2.90;;;18.50;99.90;;;;;;4994222;28;20865;-76
2022/05/21 09:25:21;;;;;;;6.70;3.63;;;18.70;99.90;;;;;;4976669;28;20499;-75
2022/05/21 09:28:00;;;;;;;5.13;3.20;;;18.80;99.90;;;;;;4976595;28;20555;-75
2022/05/21 09:30:31;;;;;;;5.20;2.93;;;18.90;99.90;;;;;;4976461;28;20451;-75
2022/05/21 09:33:01;;;;;;;6.10;4.17;;;19.00;99.90;;;;;;4976546;28;20479;-75
2022/05/21 09:35:32;;;;;;;5.00;2.63;;;19.00;99.90;;;;;;4976418;28;20449;-75
2022/05/21 09:38:15;;;;;;;4.33;2.63;;;19.00;99.90;;;;;;4976529;28;20444;-75
2022/05/21 09:40:49;;;;;;;4.40;2.57;;;19.10;99.90;;;;;;4976411;28;20464;-75
2022/05/21 09:46:21;;;;;;;7.10;2.97;;;19.00;99.90;;;;;;4969491;28;20445;-75
2022/05/21 09:48:51;;;;;;;5.43;2.80;;;18.90;99.90;;;;;;4976255;28;20453;-74
2022/05/21 09:51:25;;;;;;;5.13;2.33;;;18.80;99.90;;;;;;4976151;28;20548;-75
2022/05/21 09:53:55;;;;;;;6.70;2.83;;;18.60;99.90;;;;;;4976285;28;20411;-75
2022/05/21 09:56:26;;;;;;;5.00;2.60;;;18.50;99.90;;;;;;4976117;28;20452;-75
2022/05/21 09:59:10;;;;;;;4.30;2.17;;;18.50;99.90;;;;;;4976295;28;20953;-75
2022/05/21 10:01:41;;;;;;;6.17;2.57;;;18.60;99.90;;;;;;4976362;28;20796;-75
2022/05/21 10:04:16;;;;;;;5.17;2.57;;;18.70;99.90;;;;;;4979872;28;20468;-75
2022/05/21 10:06:48;;;;;;;6.13;2.43;;;18.90;99.90;;;;;;4979776;28;20460;-75
2022/05/21 10:12:17;;;;;;;4.10;2.47;;;19.10;99.60;;;;;;4978875;28;20477;-74
2022/05/21 10:14:52;;;;;;;6.10;2.70;;;19.10;99.60;;;;;;4978159;28;20451;-75
2022/05/21 10:17:29;;;;;;;5.83;2.40;;;19.10;99.50;;;;;;5011020;28;20944;-75
2022/05/21 10:20:12;;;;;;;5.07;2.77;;;19.20;99.40;;;;;;5016596;28;20456;-73
2022/05/21 10:22:56;;;;;;;4.60;2.53;;;19.30;99.30;;;;;;5016336;28;20456;-74
2022/05/21 10:25:36;;;;;;;3.13;2.27;;;19.40;99.00;;;;;;4998735;28;20494;-74
2022/05/21 10:28:24;;;;;;;5.33;2.10;;;19.40;98.90;;;;;;4998786;28;20436;-73
2022/05/21 10:31:25;;;;;;;6.57;2.10;;;19.30;98.50;;;;;;4998463;28;20472;-73
2022/05/21 10:34:22;;;;;;;4.57;2.30;;;19.30;98.80;;;;;;4998570;28;20458;-73
2022/05/21 10:37:06;;;;;;;3.20;1.73;;;19.30;98.40;;;;;;5016208;28;20425;-73
2022/05/21 10:40:27;;;;;;;4.70;1.70;;;19.20;97.90;;;;;;4998272;28;20866;-73
2022/05/21 10:43:28;;;;;;;6.63;2.00;;;19.00;97.60;;;;;;4987394;28;20472;-74
2022/05/21 10:46:08;;;;;;;5.53;2.57;;;19.00;98.00;;;;;;4996978;28;20849;-73
2022/05/21 10:49:08;;;;;;;3.80;2.00;;;19.00;97.70;;;;;;4996991;28;20779;-73
2022/05/21 10:51:45;;;;;;;5.77;2.50;;;19.10;97.70;;;;;;4992743;28;20487;-74
2022/05/21 10:54:55;;;;;;;4.10;2.00;;;19.10;97.80;;;;;;4998110;28;20543;-74
2022/05/21 10:57:49;;;;;;;4.30;1.97;;;19.00;97.60;;;;;;5015982;28;20429;-75
2022/05/21 11:00:37;;;;;;;3.97;2.20;;;18.90;97.50;;;;;;4997839;28;20522;-74
2022/05/21 11:03:27;;;;;;;3.97;2.23;;;18.90;97.60;;;;;;4997754;28;20475;-74
2022/05/21 11:06:49;;;;;;;4.90;2.00;;;19.00;98.00;;;;;;5015285;28;20428;-74
2022/05/21 11:09:29;;;;;;;5.67;2.07;;;19.20;97.70;;;;;;5015485;28;20439;-73
2022/05/21 11:12:05;;;;;;;3.87;2.20;;;19.20;97.50;;;;;;5015306;28;20448;-74
2022/05/21 11:14:41;;;;;;;4.97;2.00;;;19.20;97.30;;;;;;4997247;28;20451;-73
2022/05/21 11:17:34;;;;;;;6.20;2.40;;;19.10;97.30;;;;;;4997930;28;20459;-74
2022/05/21 11:20:11;;;;;;;5.33;2.03;;;19.10;97.50;;;;;;4997439;28;20471;-73
2022/05/21 11:22:46;;;;;;;11.33;2.30;;;19.10;97.60;;;;;;4997503;28;20552;-74
2022/05/21 11:25:18;;;;;;;5.60;2.17;;;19.20;97.50;;;;;;5015078;28;20826;-73
2022/05/21 11:27:57;;;;;;;4.40;2.00;;;19.30;97.40;;;;;;5014931;28;20425;-74
2022/05/21 11:30:25;;;;;;;3.80;2.30;;;19.30;97.20;;;;;;5015870;28;20436;-73
2022/05/21 11:39:04;;;;;;;4.77;2.10;;;19.20;97.10;;;;;;4993295;28;20865;-74
2022/05/21 11:41:58;;;;;;;4.67;2.30;;;19.20;97.00;;;;;;4996970;28;20534;-75
2022/05/21 11:47:43;;;;;;;4.20;2.10;;;19.10;96.70;;;;;;5014673;28;20420;-74
2022/05/21 11:50:28;;;;;;;6.63;2.40;;;19.10;96.40;;;;;;4996921;28;21007;-74
2022/05/21 11:53:05;;;;;;;5.73;2.33;;;19.10;96.50;;;;;;4996736;28;20510;-74
2022/05/21 11:56:00;;;;;;;4.90;2.23;;;19.10;96.60;;;;;;4996855;28;20957;-75
2022/05/21 11:59:15;;;;;;;6.13;1.80;;;19.10;96.70;;;;;;4996814;28;20498;-75
2022/05/21 12:02:00;;;;;;;7.57;2.53;;;19.20;96.70;;;;;;5014369;28;20534;-74
2022/05/21 12:04:53;;;;;;;4.87;2.37;;;19.30;96.80;;;;;;4996737;28;20447;-74
2022/05/21 12:07:57;;;;;;;4.33;2.10;;;19.30;96.60;;;;;;4996710;28;20453;-74
2022/05/21 12:10:51;;;;;;;6.30;2.60;;;19.40;96.50;;;;;;4996656;28;20506;-74
2022/05/21 12:13:32;;;;;;;5.03;2.17;;;19.40;96.40;;;;;;4996461;28;20517;-73
2022/05/21 12:16:03;;;;;;;6.23;2.73;;;19.40;96.30;;;;;;4996483;28;20440;-73
2022/05/21 12:18:44;;;;;;;6.03;2.40;;;19.40;96.30;;;;;;4996523;28;20482;-73
2022/05/21 12:22:04;;;;;;;4.20;2.03;;;19.40;96.10;;;;;;4996237;28;20460;-73
2022/05/21 12:24:40;;;;;;;3.67;1.50;;;19.40;96.00;;;;;;4937036;29;20992;-73
2022/05/21 12:27:22;;;;;;;4.73;1.80;;;19.40;96.10;;;;;;4988720;28;20456;-73
2022/05/21 12:29:56;;;;;;;4.90;2.00;;;19.30;96.00;;;;;;5014152;28;20485;-74
2022/05/21 12:32:26;;;;;;;5.63;2.20;;;19.40;96.10;;;;;;4996155;28;20468;-73
2022/05/21 12:35:30;;;;;;;2.73;1.47;;;19.40;95.90;;;;;;4996179;28;20487;-73
2022/05/21 12:38:05;;;;;;;6.40;1.80;;;19.40;95.90;;;;;;4987001;28;20447;-74
2022/05/21 12:40:47;;;;;;;5.40;1.97;;;19.60;95.80;;;;;;5013657;28;20427;-73
2022/05/21 12:43:16;;;;;;;5.30;2.67;;;19.60;95.90;;;;;;5013897;28;20483;-73
2022/05/21 12:45:49;;;;;;;3.33;1.63;;;19.70;95.90;;;;;;4996081;28;20483;-73
2022/05/21 12:48:21;;;;;;;4.73;1.83;;;19.80;95.70;;;;;;4996073;28;20535;-74
2022/05/21 12:50:52;;;;;;;6.00;1.70;;;19.80;95.70;;;;;;4996021;28;20487;-73
2022/05/21 12:53:32;;;;;;;3.17;1.60;;;19.90;95.60;;;;;;5013388;28;20475;-73
2022/05/21 12:56:04;;;;;;;3.47;1.80;;;20.00;95.40;;;;;;5013831;28;20605;-73
2022/05/21 12:58:33;;;;;;;3.60;1.63;;;20.00;95.40;;;;;;4995811;28;20829;-73
2022/05/21 13:01:03;;;;;;;3.77;1.60;;;20.00;95.30;;;;;;5013554;28;20472;-73
2022/05/21 13:03:34;;;;;;;2.73;1.67;;;20.00;95.30;;;;;;5013354;28;20443;-73
2022/05/21 13:06:13;;;;;;;5.23;2.03;;;19.90;95.10;;;;;;5013659;28;20455;-74
2022/05/21 13:08:42;;;;;;;4.53;1.80;;;19.80;95.10;;;;;;4995817;28;20502;-74
2022/05/21 13:11:17;;;;;;;3.43;1.73;;;19.80;95.10;;;;;;4995656;28;20452;-74
2022/05/21 13:13:52;;;;;;;4.07;1.60;;;19.70;95.10;;;;;;4995811;28;20435;-73
2022/05/21 13:16:30;;;;;;;8.17;1.90;;;19.80;95.20;;;;;;5013601;28;20424;-73
2022/05/21 13:19:18;;;;;;;6.00;1.83;;;19.80;95.00;;;;;;4995754;28;20478;-74
2022/05/21 13:21:54;;;;;;;3.30;1.80;;;19.90;95.00;;;;;;5013440;28;20487;-74
2022/05/21 13:24:33;;;;;;;4.83;1.80;;;19.80;95.00;;;;;;4995735;28;20466;-74
2022/05/21 13:27:10;;;;;;;7.30;1.70;;;19.80;95.00;;;;;;4995661;28;20451;-74
2022/05/21 13:29:39;;;;;;;4.33;1.73;;;19.70;95.10;;;;;;4995663;28;20482;-74
2022/05/21 13:32:23;;;;;;;5.03;1.80;;;19.80;95.30;;;;;;5013099;28;20555;-74
2022/05/21 13:34:52;;;;;;;4.37;1.80;;;19.90;95.30;;;;;;4995653;28;20502;-74
2022/05/21 13:37:30;;;;;;;4.03;2.00;;;20.00;95.20;;;;;;5018113;28;20475;-74
2022/05/21 13:40:03;;;;;;;2.70;2.03;;;20.00;95.10;;;;;;5017312;28;20428;-74
2022/05/21 13:42:34;;;;;;;5.47;1.20;;;20.10;95.00;;;;;;4999198;28;20488;-73
2022/05/21 13:45:08;;;;;;;5.97;1.93;;;20.00;94.90;;;;;;4999328;28;20832;-74
2022/05/21 13:47:43;;;;;;;6.10;2.40;;;20.10;94.90;;;;;;4999282;28;20452;-73
2022/05/21 13:50:11;;;;;;;4.87;1.90;;;20.10;94.70;;;;;;4999360;28;20443;-73
2022/05/21 13:52:40;;;;;;;5.03;1.87;;;20.20;94.80;;;;;;4998953;28;20480;-73